Time;durP1;ratioP1;P1;durP2;ratioP2;P2;SDS_P1;SDS_P2;PMS_P1;PMS_P2;Temp;Humidity;BMP_temperature;BMP_pressure;BME280_temperature;BME280_humidity;BME280_pressure;Samples;Min_cycle;Max_cycle;Signal;HPM_P1;HPM_P2
2021/12/31 00:00:16;;;;;;;0.70;0.70;;;;;;;;;;2270350;59;21090;-76
2021/12/31 00:02:43;;;;;;;1.00;0.80;;;;;;;;;;2270924;59;21672;-75
2021/12/31 00:05:11;;;;;;;0.75;0.60;;;;;;;;;;2270881;59;21106;-76
2021/12/31 00:07:38;;;;;;;0.60;0.60;;;;;;;;;;2270683;59;21107;-75
2021/12/31 00:10:06;;;;;;;0.73;0.70;;;;;;;;;;2270476;59;21580;-75
2021/12/31 00:12:33;;;;;;;1.35;0.60;;;;;;;;;;2501449;55;21122;-76
2021/12/31 00:15:00;;;;;;;1.12;0.90;;;;;;;;;;2271296;59;21051;-75
2021/12/31 00:17:28;;;;;;;0.75;0.65;;;;;;;;;;2501356;55;21110;-75
2021/12/31 00:20:01;;;;;;;0.70;0.70;;;;;;;;;;2501488;55;21049;-76
2021/12/31 00:25:14;;;;;;;1.15;0.93;;;;;;;;;;2271183;59;20994;-76
2021/12/31 00:27:41;;;;;;;1.42;1.10;;;;;;;;;;2502199;55;21602;-75
2021/12/31 00:30:09;;;;;;;0.82;0.80;;;;;;;;;;2501292;55;21051;-76
2021/12/31 00:32:36;;;;;;;1.30;1.08;;;;;;;;;;2270965;59;21545;-76
2021/12/31 00:35:03;;;;;;;1.42;1.17;;;;;;;;;;2270652;59;21047;-76
2021/12/31 00:37:31;;;;;;;1.20;1.10;;;;;;;;;;2270442;59;21150;-76
2021/12/31 00:39:58;;;;;;;1.77;1.35;;;;;;;;;;2270871;59;21066;-76
2021/12/31 00:42:25;;;;;;;2.35;1.58;;;;;;;;;;2270729;59;21589;-76
2021/12/31 00:44:53;;;;;;;2.15;1.52;;;;;;;;;;2270933;59;21130;-76
2021/12/31 00:47:20;;;;;;;1.65;1.23;;;;;;;;;;2270578;59;21055;-76
2021/12/31 00:49:47;;;;;;;1.65;0.98;;;;;;;;;;2501382;55;21115;-76
2021/12/31 00:52:14;;;;;;;2.15;1.20;;;;;;;;;;2501448;55;21063;-76
2021/12/31 00:54:42;;;;;;;1.55;1.17;;;;;;;;;;2270557;59;21074;-76
2021/12/31 00:57:09;;;;;;;1.35;1.20;;;;;;;;;;2271341;59;21055;-76
2021/12/31 00:59:36;;;;;;;2.95;1.65;;;;;;;;;;2501095;55;21198;-76
2021/12/31 01:02:05;;;;;;;1.98;1.45;;;;;;;;;;2270526;59;21126;-76
2021/12/31 01:04:32;;;;;;;1.77;1.45;;;;;;;;;;2271083;59;21118;-77
2021/12/31 01:07:01;;;;;;;1.50;1.17;;;;;;;;;;2270628;59;21618;-76
2021/12/31 01:09:28;;;;;;;2.00;1.40;;;;;;;;;;2270908;59;21047;-77
2021/12/31 01:11:56;;;;;;;2.17;1.20;;;;;;;;;;2271122;59;21139;-76
2021/12/31 01:14:30;;;;;;;2.67;1.98;;;;;;;;;;2270702;59;21135;-77
2021/12/31 01:16:59;;;;;;;2.20;1.45;;;;;;;;;;2502003;55;21110;-76
2021/12/31 01:19:46;;;;;;;2.70;1.40;;;;;;;;;;2501443;55;21043;-77
2021/12/31 01:22:13;;;;;;;2.10;1.85;;;;;;;;;;2270490;59;21067;-76
2021/12/31 01:24:40;;;;;;;4.47;1.87;;;;;;;;;;2501370;55;21123;-76
2021/12/31 01:27:08;;;;;;;2.92;2.00;;;;;;;;;;2271204;59;21114;-76
2021/12/31 01:29:35;;;;;;;2.90;2.08;;;;;;;;;;2270307;59;21581;-77
2021/12/31 01:32:02;;;;;;;3.92;1.95;;;;;;;;;;2271133;59;21047;-76
2021/12/31 01:34:29;;;;;;;3.25;2.12;;;;;;;;;;2271495;59;21031;-77
2021/12/31 01:36:59;;;;;;;8.23;3.10;;;;;;;;;;2271276;59;21150;-76
2021/12/31 01:39:26;;;;;;;2.80;1.90;;;;;;;;;;2271028;59;21055;-76
2021/12/31 01:41:53;;;;;;;8.25;2.90;;;;;;;;;;2270933;59;21158;-76
2021/12/31 01:44:22;;;;;;;14.23;4.05;;;;;;;;;;2270658;59;21134;-76
2021/12/31 01:46:57;;;;;;;6.53;2.50;;;;;;;;;;2270826;59;21134;-76
2021/12/31 01:49:32;;;;;;;3.50;2.33;;;;;;;;;;2270446;59;21542;-76
2021/12/31 01:51:59;;;;;;;7.53;3.20;;;;;;;;;;2501072;55;21062;-76
2021/12/31 01:54:26;;;;;;;7.78;3.47;;;;;;;;;;2270848;59;21107;-77
2021/12/31 01:56:54;;;;;;;4.47;2.62;;;;;;;;;;2501832;55;21063;-75
2021/12/31 01:59:21;;;;;;;8.00;3.90;;;;;;;;;;2270538;59;21135;-76
2021/12/31 02:01:48;;;;;;;6.85;3.62;;;;;;;;;;2271473;59;21051;-76
2021/12/31 02:04:15;;;;;;;8.90;3.50;;;;;;;;;;2500494;55;21043;-76
2021/12/31 02:06:42;;;;;;;9.90;4.15;;;;;;;;;;2270786;59;21126;-76
2021/12/31 02:09:09;;;;;;;5.20;3.40;;;;;;;;;;2269862;59;21059;-76
2021/12/31 02:11:36;;;;;;;12.18;5.12;;;;;;;;;;2270938;59;21027;-77
2021/12/31 02:14:04;;;;;;;7.80;4.40;;;;;;;;;;2501148;55;21058;-75
2021/12/31 02:16:32;;;;;;;12.93;5.18;;;;;;;;;;2271076;59;21656;-76
2021/12/31 02:18:59;;;;;;;11.93;3.95;;;;;;;;;;2269962;59;21178;-76
2021/12/31 02:21:26;;;;;;;13.27;5.18;;;;;;;;;;2270317;59;21071;-76
2021/12/31 02:23:55;;;;;;;8.77;4.78;;;;;;;;;;2270824;59;21055;-76
2021/12/31 02:26:22;;;;;;;9.48;4.10;;;;;;;;;;2271181;59;21135;-76
2021/12/31 02:28:49;;;;;;;14.50;5.03;;;;;;;;;;2501520;55;21102;-76
2021/12/31 02:31:16;;;;;;;12.27;4.55;;;;;;;;;;2270678;59;21558;-76
2021/12/31 02:33:43;;;;;;;11.12;5.20;;;;;;;;;;2270635;59;21079;-76
2021/12/31 02:36:10;;;;;;;10.63;4.85;;;;;;;;;;2271331;59;21055;-76
2021/12/31 02:38:37;;;;;;;9.80;4.00;;;;;;;;;;2270525;59;21589;-76
2021/12/31 02:41:04;;;;;;;14.23;5.35;;;;;;;;;;2270223;59;21115;-75
2021/12/31 02:43:31;;;;;;;9.65;3.83;;;;;;;;;;2270896;59;21067;-76
2021/12/31 02:46:00;;;;;;;15.57;5.25;;;;;;;;;;2271095;59;21040;-76
2021/12/31 02:48:27;;;;;;;8.50;3.50;;;;;;;;;;2271060;59;21083;-76
2021/12/31 02:50:56;;;;;;;7.78;4.72;;;;;;;;;;2270946;59;21107;-77
2021/12/31 02:53:25;;;;;;;9.40;4.40;;;;;;;;;;2270874;59;21134;-77
2021/12/31 02:55:58;;;;;;;13.10;4.45;;;;;;;;;;2501142;55;21119;-76
2021/12/31 02:58:25;;;;;;;7.22;4.20;;;;;;;;;;2270437;59;21035;-76
2021/12/31 03:00:52;;;;;;;18.27;5.55;;;;;;;;;;2270885;59;21071;-76
2021/12/31 03:03:20;;;;;;;10.88;4.78;;;;;;;;;;2270631;59;21043;-77
2021/12/31 03:05:47;;;;;;;9.10;4.40;;;;;;;;;;2270855;59;21526;-76
2021/12/31 03:08:16;;;;;;;12.90;4.97;;;;;;;;;;2270021;59;21564;-76
2021/12/31 03:10:43;;;;;;;19.50;4.70;;;;;;;;;;2270805;59;21597;-76
2021/12/31 03:13:10;;;;;;;18.02;5.22;;;;;;;;;;2501289;55;21039;-76
2021/12/31 03:15:37;;;;;;;12.95;4.70;;;;;;;;;;2270394;59;21134;-76
2021/12/31 03:18:06;;;;;;;12.20;4.40;;;;;;;;;;2501477;55;21688;-76
2021/12/31 03:20:37;;;;;;;15.27;4.75;;;;;;;;;;2501578;55;21067;-76
2021/12/31 03:23:04;;;;;;;10.75;4.03;;;;;;;;;;2270785;59;21122;-77
2021/12/31 03:25:32;;;;;;;13.73;5.07;;;;;;;;;;2271325;59;21050;-76
2021/12/31 03:27:59;;;;;;;7.97;4.57;;;;;;;;;;2271155;59;21170;-75
2021/12/31 03:30:27;;;;;;;9.00;4.62;;;;;;;;;;2270653;59;21106;-77
2021/12/31 03:32:54;;;;;;;15.35;5.00;;;;;;;;;;2501380;55;21070;-75
2021/12/31 03:35:21;;;;;;;8.18;4.10;;;;;;;;;;2270660;59;21134;-77
2021/12/31 03:37:49;;;;;;;20.95;5.45;;;;;;;;;;2271159;59;21118;-76
2021/12/31 03:40:16;;;;;;;11.75;4.60;;;;;;;;;;2269863;59;21071;-76
2021/12/31 03:42:43;;;;;;;18.17;4.62;;;;;;;;;;2501529;55;21194;-77
2021/12/31 03:45:11;;;;;;;12.95;4.00;;;;;;;;;;2501982;55;21123;-76
2021/12/31 03:47:38;;;;;;;10.57;4.05;;;;;;;;;;2270840;59;21044;-76
2021/12/31 03:50:06;;;;;;;7.90;3.33;;;;;;;;;;2270659;59;21074;-76
2021/12/31 03:52:36;;;;;;;9.13;3.67;;;;;;;;;;2270504;59;21146;-75
2021/12/31 03:55:03;;;;;;;10.65;3.58;;;;;;;;;;2270875;59;21070;-76
2021/12/31 03:57:30;;;;;;;8.90;3.75;;;;;;;;;;2271183;59;21139;-76
2021/12/31 03:59:57;;;;;;;11.15;4.53;;;;;;;;;;2270454;59;21620;-76
2021/12/31 04:02:24;;;;;;;10.27;3.70;;;;;;;;;;2270818;59;21062;-76
2021/12/31 04:04:51;;;;;;;14.87;4.40;;;;;;;;;;2270855;59;21585;-75
2021/12/31 04:07:19;;;;;;;14.05;3.95;;;;;;;;;;2270411;59;21055;-76
2021/12/31 04:09:46;;;;;;;8.82;3.53;;;;;;;;;;2500745;55;21134;-76
2021/12/31 04:12:13;;;;;;;12.63;4.70;;;;;;;;;;2271046;59;21059;-76
2021/12/31 04:14:40;;;;;;;11.93;4.60;;;;;;;;;;2270620;59;21055;-75
2021/12/31 04:17:07;;;;;;;14.48;5.20;;;;;;;;;;2270545;59;21596;-77
2021/12/31 04:19:35;;;;;;;12.77;4.12;;;;;;;;;;2269788;59;21066;-76
2021/12/31 04:22:02;;;;;;;14.90;4.70;;;;;;;;;;2270734;59;21164;-76
2021/12/31 04:24:50;;;;;;;13.52;4.12;;;;;;;;;;2271186;59;21067;-76
2021/12/31 04:27:17;;;;;;;12.57;4.75;;;;;;;;;;2501550;55;21107;-76
2021/12/31 04:29:50;;;;;;;10.13;3.20;;;;;;;;;;2270445;59;21039;-76
2021/12/31 04:32:17;;;;;;;10.35;4.60;;;;;;;;;;2270752;59;21205;-75
2021/12/31 04:34:44;;;;;;;15.70;4.68;;;;;;;;;;2270872;59;21051;-76
2021/12/31 04:37:12;;;;;;;9.90;4.03;;;;;;;;;;2270406;59;21538;-75
2021/12/31 04:39:39;;;;;;;11.57;4.12;;;;;;;;;;2501097;55;21158;-76
2021/12/31 04:42:06;;;;;;;11.68;5.28;;;;;;;;;;2270495;59;21066;-75
2021/12/31 04:44:33;;;;;;;8.50;4.12;;;;;;;;;;2270918;59;22175;-75
2021/12/31 04:47:00;;;;;;;11.57;4.12;;;;;;;;;;2270862;59;21063;-75
2021/12/31 04:49:27;;;;;;;11.55;3.75;;;;;;;;;;2270709;59;21051;-76
2021/12/31 04:51:54;;;;;;;11.25;4.00;;;;;;;;;;2271346;59;21055;-75
2021/12/31 04:54:21;;;;;;;15.77;4.43;;;;;;;;;;2501687;55;21059;-76
2021/12/31 04:56:52;;;;;;;15.52;3.70;;;;;;;;;;2270303;59;21150;-73
2021/12/31 04:59:19;;;;;;;11.85;3.90;;;;;;;;;;2270471;59;21122;-76
2021/12/31 05:01:47;;;;;;;9.27;4.30;;;;;;;;;;2270857;59;21537;-76
2021/12/31 05:04:14;;;;;;;16.48;3.72;;;;;;;;;;2501779;55;21039;-76
2021/12/31 05:06:42;;;;;;;12.35;3.95;;;;;;;;;;2270927;59;21047;-76
2021/12/31 05:09:09;;;;;;;10.40;3.62;;;;;;;;;;2270750;59;21050;-76
2021/12/31 05:11:36;;;;;;;10.95;3.40;;;;;;;;;;2271008;59;21058;-76
2021/12/31 05:14:04;;;;;;;18.12;4.40;;;;;;;;;;2501667;55;21401;-75
2021/12/31 05:16:31;;;;;;;9.30;3.67;;;;;;;;;;2270950;59;21114;-76
2021/12/31 05:18:58;;;;;;;11.10;3.80;;;;;;;;;;2269582;59;21138;-75
2021/12/31 05:21:25;;;;;;;12.18;4.35;;;;;;;;;;2398198;53;21075;-74
2021/12/31 05:23:52;;;;;;;11.18;3.37;;;;;;;;;;2331553;57;21051;-76
2021/12/31 05:26:19;;;;;;;13.62;4.62;;;;;;;;;;2330601;57;21121;-74
2021/12/31 05:28:46;;;;;;;21.25;4.30;;;;;;;;;;2325113;57;21066;-76
2021/12/31 05:31:13;;;;;;;12.45;4.00;;;;;;;;;;2304344;58;21066;-76
2021/12/31 05:33:40;;;;;;;10.70;3.10;;;;;;;;;;2305021;58;21070;-76
2021/12/31 05:36:07;;;;;;;9.18;3.80;;;;;;;;;;2304942;58;21560;-76
2021/12/31 05:38:34;;;;;;;9.52;3.50;;;;;;;;;;2304917;58;21616;-76
2021/12/31 05:41:02;;;;;;;9.45;3.05;;;;;;;;;;2304803;58;21071;-76
2021/12/31 05:43:29;;;;;;;16.35;3.35;;;;;;;;;;2305062;58;21074;-74
2021/12/31 05:45:56;;;;;;;11.20;3.60;;;;;;;;;;2304089;58;21876;-73
2021/12/31 05:48:23;;;;;;;17.62;3.87;;;;;;;;;;2305071;58;21126;-74
2021/12/31 05:50:50;;;;;;;9.52;3.25;;;;;;;;;;2304649;58;21328;-74
2021/12/31 05:53:17;;;;;;;12.73;4.07;;;;;;;;;;2352504;54;21055;-75
2021/12/31 05:55:44;;;;;;;12.30;3.75;;;;;;;;;;2304125;58;21058;-74
2021/12/31 05:58:11;;;;;;;8.85;3.03;;;;;;;;;;2305022;58;21074;-75
2021/12/31 06:00:38;;;;;;;10.52;3.58;;;;;;;;;;2304164;58;21118;-75
2021/12/31 06:03:05;;;;;;;9.13;3.30;;;;;;;;;;2305272;58;21141;-75
2021/12/31 06:05:32;;;;;;;9.52;3.22;;;;;;;;;;2359512;54;21034;-75
2021/12/31 06:07:59;;;;;;;6.20;3.05;;;;;;;;;;2305003;58;21129;-75
2021/12/31 06:10:26;;;;;;;8.02;3.72;;;;;;;;;;2304434;58;21189;-74
2021/12/31 06:12:57;;;;;;;7.65;3.00;;;;;;;;;;2458576;54;21126;-75
2021/12/31 06:15:25;;;;;;;11.95;4.00;;;;;;;;;;2304913;58;21138;-75
2021/12/31 06:17:53;;;;;;;8.63;3.60;;;;;;;;;;2304732;58;21141;-75
2021/12/31 06:20:20;;;;;;;7.60;3.25;;;;;;;;;;2304517;58;21070;-75
2021/12/31 06:22:47;;;;;;;11.15;3.28;;;;;;;;;;2304900;58;21165;-77
2021/12/31 06:25:14;;;;;;;7.50;3.65;;;;;;;;;;2304821;58;21107;-76
2021/12/31 06:27:41;;;;;;;13.68;4.28;;;;;;;;;;2304978;58;22203;-75
2021/12/31 06:30:10;;;;;;;10.50;3.62;;;;;;;;;;2304339;58;21138;-76
2021/12/31 06:32:37;;;;;;;9.15;3.78;;;;;;;;;;2304941;58;21126;-75
2021/12/31 06:35:05;;;;;;;9.52;3.60;;;;;;;;;;2305143;58;21517;-75
2021/12/31 06:37:32;;;;;;;8.43;3.55;;;;;;;;;;2304858;58;21065;-75
2021/12/31 06:40:03;;;;;;;11.98;4.78;;;;;;;;;;2304219;58;21062;-74
2021/12/31 06:42:30;;;;;;;11.20;4.50;;;;;;;;;;2304920;58;21054;-74
2021/12/31 06:44:58;;;;;;;15.20;5.22;;;;;;;;;;2305017;58;21065;-74
2021/12/31 06:47:25;;;;;;;9.27;4.37;;;;;;;;;;2304790;58;21069;-75
2021/12/31 06:49:52;;;;;;;6.87;4.15;;;;;;;;;;2303977;58;21137;-76
2021/12/31 06:52:19;;;;;;;9.48;5.00;;;;;;;;;;2304942;58;21129;-75
2021/12/31 06:54:47;;;;;;;13.55;5.03;;;;;;;;;;2304102;58;21073;-75
2021/12/31 06:57:14;;;;;;;14.87;5.62;;;;;;;;;;2304564;58;21054;-75
2021/12/31 06:59:41;;;;;;;10.27;5.40;;;;;;;;;;2303881;58;21062;-74
2021/12/31 07:02:08;;;;;;;10.50;5.40;;;;;;;;;;2304249;58;21074;-74
2021/12/31 07:04:35;;;;;;;12.52;6.05;;;;;;;;;;2304208;58;21070;-75
2021/12/31 07:07:02;;;;;;;10.63;5.30;;;;;;;;;;2304650;58;21066;-75
2021/12/31 07:09:29;;;;;;;10.02;5.05;;;;;;;;;;2304344;58;21134;-76
2021/12/31 07:11:56;;;;;;;9.10;5.32;;;;;;;;;;2304929;58;21321;-75
2021/12/31 07:14:23;;;;;;;12.50;5.50;;;;;;;;;;2305052;58;21142;-76
2021/12/31 07:16:50;;;;;;;13.70;6.70;;;;;;;;;;2333983;54;21580;-76
2021/12/31 07:19:17;;;;;;;9.38;5.22;;;;;;;;;;2325913;54;21106;-75
2021/12/31 07:21:44;;;;;;;9.15;5.43;;;;;;;;;;2304195;58;21154;-75
2021/12/31 07:24:11;;;;;;;9.85;5.30;;;;;;;;;;2305132;58;21078;-75
2021/12/31 07:26:38;;;;;;;10.18;6.18;;;;;;;;;;2304952;58;21356;-75
2021/12/31 07:29:05;;;;;;;15.52;6.40;;;;;;;;;;2304600;58;22251;-75
2021/12/31 07:31:32;;;;;;;10.77;6.28;;;;;;;;;;2304958;58;21082;-75
2021/12/31 07:33:59;;;;;;;11.55;5.45;;;;;;;;;;2304699;58;21122;-75
2021/12/31 07:36:27;;;;;;;11.35;6.80;;;;;;;;;;2305269;58;21126;-75
2021/12/31 07:39:00;;;;;;;11.02;5.55;;;;;;;;;;2304513;58;21058;-75
2021/12/31 07:41:27;;;;;;;11.98;6.78;;;;;;;;;;2305393;58;21070;-75
2021/12/31 07:43:54;;;;;;;11.85;6.62;;;;;;;;;;2304761;58;21608;-75
2021/12/31 07:46:21;;;;;;;13.70;6.37;;;;;;;;;;2305222;58;21050;-75
2021/12/31 07:48:48;;;;;;;13.30;6.93;;;;;;;;;;2304766;58;21229;-76
2021/12/31 07:51:16;;;;;;;12.18;6.78;;;;;;;;;;2328563;54;21059;-75
2021/12/31 07:53:43;;;;;;;8.75;5.85;;;;;;;;;;2305321;58;21062;-76
2021/12/31 07:56:10;;;;;;;9.23;5.12;;;;;;;;;;2304982;58;21122;-75
2021/12/31 07:58:37;;;;;;;9.63;5.95;;;;;;;;;;2304930;58;21600;-76
2021/12/31 08:01:04;;;;;;;13.88;6.00;;;;;;;;;;2305032;58;21062;-75
2021/12/31 08:03:33;;;;;;;14.25;6.62;;;;;;;;;;2304843;58;21129;-75
2021/12/31 08:06:00;;;;;;;11.60;7.12;;;;;;;;;;2305360;56;21460;-75
2021/12/31 08:08:27;;;;;;;9.10;6.35;;;;;;;;;;2304955;58;21102;-75
2021/12/31 08:10:54;;;;;;;8.80;5.85;;;;;;;;;;2304683;58;21062;-75
2021/12/31 08:13:21;;;;;;;11.57;6.47;;;;;;;;;;2318351;54;21070;-76
2021/12/31 08:15:48;;;;;;;10.23;6.20;;;;;;;;;;2305191;58;21556;-76
2021/12/31 08:18:15;;;;;;;14.25;6.95;;;;;;;;;;2304972;57;21126;-75
2021/12/31 08:20:42;;;;;;;11.80;5.68;;;;;;;;;;2305128;58;21557;-75
2021/12/31 08:23:11;;;;;;;14.65;6.78;;;;;;;;;;2305209;58;21061;-75
2021/12/31 08:25:39;;;;;;;12.07;6.93;;;;;;;;;;2305148;58;21105;-76
2021/12/31 08:28:06;;;;;;;7.60;5.22;;;;;;;;;;2304896;58;21065;-76
2021/12/31 08:30:33;;;;;;;9.77;6.20;;;;;;;;;;2304704;58;21133;-76
2021/12/31 08:33:01;;;;;;;8.70;5.75;;;;;;;;;;2312076;54;21561;-76
2021/12/31 08:35:28;;;;;;;12.85;5.90;;;;;;;;;;2345625;54;21220;-75
2021/12/31 08:37:55;;;;;;;11.35;6.22;;;;;;;;;;2307669;54;21142;-76
2021/12/31 08:40:22;;;;;;;9.35;6.00;;;;;;;;;;2308319;54;21126;-76
2021/12/31 08:42:49;;;;;;;9.75;6.50;;;;;;;;;;2305043;58;21209;-76
2021/12/31 08:45:16;;;;;;;11.50;6.07;;;;;;;;;;2305106;58;21054;-76
2021/12/31 08:47:43;;;;;;;9.30;5.75;;;;;;;;;;2304868;58;21129;-76
2021/12/31 08:50:10;;;;;;;9.13;5.40;;;;;;;;;;2348852;54;21062;-76
2021/12/31 08:52:37;;;;;;;7.57;6.20;;;;;;;;;;2304726;58;21059;-76
2021/12/31 08:55:05;;;;;;;7.55;4.37;;;;;;;;;;2304972;58;21076;-76
2021/12/31 08:57:33;;;;;;;10.57;5.47;;;;;;;;;;2305041;58;21154;-76
2021/12/31 09:00:00;;;;;;;8.75;5.20;;;;;;;;;;2304848;58;21776;-76
2021/12/31 09:02:27;;;;;;;8.70;4.50;;;;;;;;;;2305091;58;21074;-77
2021/12/31 09:04:54;;;;;;;10.13;4.78;;;;;;;;;;2304739;58;21070;-77
2021/12/31 09:07:21;;;;;;;9.38;5.18;;;;;;;;;;2303949;58;21066;-76
2021/12/31 09:09:48;;;;;;;9.43;4.90;;;;;;;;;;2350813;54;21054;-76
2021/12/31 09:12:15;;;;;;;8.43;5.30;;;;;;;;;;2304353;58;21538;-74
2021/12/31 09:14:42;;;;;;;10.23;5.12;;;;;;;;;;2354264;54;21165;-73
2021/12/31 09:17:09;;;;;;;6.43;4.45;;;;;;;;;;2304535;58;21070;-77
2021/12/31 09:19:36;;;;;;;9.88;5.07;;;;;;;;;;2303465;58;21066;-76
2021/12/31 09:22:04;;;;;;;8.48;4.35;;;;;;;;;;2304881;58;21165;-76
2021/12/31 09:24:31;;;;;;;4.85;4.15;;;;;;;;;;2304878;58;21058;-75
2021/12/31 09:26:58;;;;;;;3.55;2.95;;;;;;;;;;2304695;58;21625;-76
2021/12/31 09:29:25;;;;;;;7.32;3.62;;;;;;;;;;2304826;58;21050;-76
2021/12/31 09:31:52;;;;;;;5.47;4.25;;;;;;;;;;2304675;58;21062;-76
2021/12/31 09:34:19;;;;;;;7.00;3.90;;;;;;;;;;2304224;58;21077;-76
2021/12/31 09:36:46;;;;;;;5.87;3.60;;;;;;;;;;2305001;58;21568;-76
2021/12/31 09:39:13;;;;;;;4.65;3.47;;;;;;;;;;2304394;58;21055;-76
2021/12/31 09:41:40;;;;;;;4.53;3.58;;;;;;;;;;2304944;58;21400;-74
2021/12/31 09:44:08;;;;;;;12.32;3.83;;;;;;;;;;2304686;58;21134;-76
2021/12/31 09:46:35;;;;;;;6.90;4.22;;;;;;;;;;2304869;58;21628;-76
2021/12/31 09:49:02;;;;;;;4.47;3.35;;;;;;;;;;2362357;54;21141;-76
2021/12/31 09:51:30;;;;;;;7.87;3.12;;;;;;;;;;2305116;58;21153;-76
2021/12/31 09:53:59;;;;;;;5.30;2.87;;;;;;;;;;2304881;58;21133;-76
2021/12/31 09:56:26;;;;;;;9.07;3.55;;;;;;;;;;2304644;58;21054;-76
2021/12/31 09:58:53;;;;;;;4.47;2.87;;;;;;;;;;2304651;58;21604;-76
2021/12/31 10:01:20;;;;;;;5.25;3.22;;;;;;;;;;2305136;58;21062;-77
2021/12/31 10:03:55;;;;;;;5.40;2.78;;;;;;;;;;2304507;58;22206;-76
2021/12/31 10:06:23;;;;;;;6.37;2.85;;;;;;;;;;2482011;54;21101;-76
2021/12/31 10:08:50;;;;;;;4.18;2.47;;;;;;;;;;2323645;54;21063;-76
2021/12/31 10:11:18;;;;;;;4.68;2.97;;;;;;;;;;2305093;58;21407;-76
2021/12/31 10:13:46;;;;;;;13.32;3.58;;;;;;;;;;2304515;58;21137;-76
2021/12/31 10:16:20;;;;;;;6.82;3.00;;;;;;;;;;2304750;58;21078;-76
2021/12/31 10:18:47;;;;;;;7.35;2.83;;;;;;;;;;2304232;58;21134;-76
2021/12/31 10:21:15;;;;;;;5.53;3.00;;;;;;;;;;2304795;58;21050;-75
2021/12/31 10:23:42;;;;;;;3.00;2.65;;;;;;;;;;2304750;58;21138;-76
2021/12/31 10:26:10;;;;;;;4.22;2.50;;;;;;;;;;2304852;58;21074;-76
2021/12/31 10:28:38;;;;;;;6.03;3.22;;;;;;;;;;2304690;58;21074;-76
2021/12/31 10:31:12;;;;;;;3.10;2.30;;;;;;;;;;2304395;58;21073;-76
2021/12/31 10:33:41;;;;;;;5.28;3.20;;;;;;;;;;2304928;58;21711;-76
2021/12/31 10:36:08;;;;;;;4.43;2.58;;;;;;;;;;2305198;58;21067;-76
2021/12/31 10:38:36;;;;;;;5.95;2.70;;;;;;;;;;2304437;58;21109;-76
2021/12/31 10:41:05;;;;;;;2.92;2.30;;;;;;;;;;2304705;58;21132;-75
2021/12/31 10:43:32;;;;;;;3.92;2.67;;;;;;;;;;2305346;54;21062;-75
2021/12/31 10:46:00;;;;;;;5.32;2.67;;;;;;;;;;2303698;58;21165;-76
2021/12/31 10:48:41;;;;;;;5.53;2.90;;;;;;;;;;2306495;54;21062;-76
2021/12/31 10:51:09;;;;;;;4.32;2.25;;;;;;;;;;2304323;58;21600;-76
2021/12/31 10:53:37;;;;;;;7.28;2.75;;;;;;;;;;2304352;58;21066;-76
2021/12/31 10:56:08;;;;;;;4.62;2.50;;;;;;;;;;2304778;58;21156;-76
2021/12/31 10:58:35;;;;;;;4.68;2.97;;;;;;;;;;2304896;58;21070;-76
2021/12/31 11:01:04;;;;;;;3.58;2.55;;;;;;;;;;2302994;58;21651;-76
2021/12/31 11:03:32;;;;;;;5.60;3.00;;;;;;;;;;2361995;54;21074;-82
2021/12/31 11:05:59;;;;;;;5.47;2.62;;;;;;;;;;2305064;58;21675;-76
2021/12/31 11:08:27;;;;;;;7.22;3.35;;;;;;;;;;2305080;58;21070;-76
2021/12/31 11:10:55;;;;;;;5.70;2.67;;;;;;;;;;2347413;54;21116;-76
2021/12/31 11:13:26;;;;;;;5.55;2.62;;;;;;;;;;2305024;58;21556;-76
2021/12/31 11:15:54;;;;;;;3.65;2.47;;;;;;;;;;2305239;58;21125;-76
2021/12/31 11:18:23;;;;;;;3.80;2.70;;;;;;;;;;2305043;58;21046;-76
2021/12/31 11:20:51;;;;;;;5.35;2.80;;;;;;;;;;2362869;53;21113;-76
2021/12/31 11:23:23;;;;;;;3.70;2.70;;;;;;;;;;2316476;58;21154;-76
2021/12/31 11:25:51;;;;;;;7.10;3.12;;;;;;;;;;2558538;54;21071;-77
2021/12/31 11:28:24;;;;;;;8.52;3.40;;;;;;;;;;2317501;58;21083;-76
2021/12/31 11:30:51;;;;;;;5.47;2.72;;;;;;;;;;2316109;58;21064;-76
2021/12/31 11:33:20;;;;;;;6.82;2.15;;;;;;;;;;2316406;58;21053;-77
2021/12/31 11:35:59;;;;;;;6.12;2.67;;;;;;;;;;2316300;58;21059;-77
2021/12/31 11:38:43;;;;;;;5.20;2.92;;;;;;;;;;2316306;58;21127;-77
2021/12/31 11:41:11;;;;;;;3.75;2.62;;;;;;;;;;2315459;58;21566;-76
2021/12/31 11:43:39;;;;;;;5.47;2.85;;;;;;;;;;2315616;58;21063;-75
2021/12/31 11:46:43;;;;;;;4.45;2.80;;;;;;;;;;2555464;54;21059;-76
2021/12/31 11:52:08;;;;;;;5.22;3.05;;;;;;;;;;2604333;52;22054;-75
2021/12/31 11:54:35;;;;;;;4.40;2.28;;;;;;;;;;2594661;53;21053;-74
2021/12/31 11:57:03;;;;;;;5.22;2.92;;;;;;;;;;2347150;57;21124;-74
2021/12/31 11:59:32;;;;;;;5.68;2.95;;;;;;;;;;2361351;56;21101;-74
2021/12/31 12:02:16;;;;;;;4.90;2.72;;;;;;;;;;2374235;56;21051;-74
2021/12/31 12:04:44;;;;;;;6.30;2.80;;;;;;;;;;2374941;56;21063;-74
2021/12/31 12:07:12;;;;;;;5.85;3.10;;;;;;;;;;2628195;52;21043;-73
2021/12/31 12:09:58;;;;;;;6.87;2.70;;;;;;;;;;2627771;52;21126;-73
2021/12/31 12:12:29;;;;;;;7.45;3.10;;;;;;;;;;2628488;52;21581;-75
2021/12/31 12:14:57;;;;;;;9.82;3.60;;;;;;;;;;2374705;56;21051;-75
2021/12/31 12:17:43;;;;;;;4.10;2.95;;;;;;;;;;2374402;56;21653;-77
2021/12/31 12:20:13;;;;;;;5.40;3.28;;;;;;;;;;2628626;52;21047;-75
2021/12/31 12:22:49;;;;;;;4.28;3.15;;;;;;;;;;2376286;56;21062;-77
2021/12/31 12:25:18;;;;;;;4.60;3.35;;;;;;;;;;2629759;52;21043;-77
2021/12/31 12:27:47;;;;;;;5.72;3.35;;;;;;;;;;2375419;56;21047;-77
2021/12/31 12:30:15;;;;;;;4.37;3.53;;;;;;;;;;2628046;52;21129;-76
2021/12/31 12:32:53;;;;;;;5.00;3.50;;;;;;;;;;2375285;56;21626;-76
2021/12/31 12:35:22;;;;;;;5.28;3.62;;;;;;;;;;2629320;52;21052;-77
2021/12/31 12:37:56;;;;;;;7.90;4.00;;;;;;;;;;2629008;52;21617;-76
2021/12/31 12:40:34;;;;;;;7.15;4.03;;;;;;;;;;2629219;52;21564;-78
2021/12/31 12:43:01;;;;;;;3.97;3.50;;;;;;;;;;2628293;52;21649;-76
2021/12/31 12:45:28;;;;;;;11.63;4.35;;;;;;;;;;2373923;56;21130;-76
2021/12/31 12:47:55;;;;;;;7.43;4.20;;;;;;;;;;2375114;56;21035;-77
2021/12/31 12:50:22;;;;;;;5.12;4.18;;;;;;;;;;2374817;56;21051;-76
2021/12/31 12:52:53;;;;;;;7.05;4.57;;;;;;;;;;2629101;52;22205;-76
2021/12/31 12:55:20;;;;;;;8.13;4.25;;;;;;;;;;2628956;52;21138;-77
2021/12/31 12:57:53;;;;;;;5.75;3.75;;;;;;;;;;2376127;56;21039;-78
2021/12/31 13:00:30;;;;;;;6.72;4.43;;;;;;;;;;2375673;56;21118;-77
2021/12/31 13:03:03;;;;;;;8.57;4.60;;;;;;;;;;2628766;52;21035;-77
2021/12/31 13:05:30;;;;;;;8.35;4.95;;;;;;;;;;2375867;56;21138;-78
2021/12/31 13:07:57;;;;;;;10.90;6.55;;;;;;;;;;2629512;52;21042;-76
2021/12/31 13:10:26;;;;;;;7.07;4.95;;;;;;;;;;2373837;56;21047;-76
2021/12/31 13:12:53;;;;;;;10.90;4.62;;;;;;;;;;2374028;56;21043;-78
2021/12/31 13:15:20;;;;;;;9.77;5.78;;;;;;;;;;2627356;52;21086;-76
2021/12/31 13:17:57;;;;;;;7.65;6.30;;;;;;;;;;2374146;56;21051;-76
2021/12/31 13:20:25;;;;;;;10.10;5.55;;;;;;;;;;2374199;56;21046;-76
2021/12/31 13:22:55;;;;;;;12.40;5.80;;;;;;;;;;2626567;52;21573;-75
2021/12/31 13:25:36;;;;;;;9.38;6.03;;;;;;;;;;2373597;56;21114;-75
2021/12/31 13:28:11;;;;;;;6.35;5.35;;;;;;;;;;2373462;56;21600;-75
2021/12/31 13:30:47;;;;;;;10.48;6.37;;;;;;;;;;2373777;56;21051;-76
2021/12/31 13:33:20;;;;;;;9.82;5.78;;;;;;;;;;2627273;52;21621;-75
2021/12/31 13:35:47;;;;;;;8.75;6.62;;;;;;;;;;2374085;56;21533;-76
2021/12/31 13:38:14;;;;;;;7.37;5.65;;;;;;;;;;2372409;56;21051;-75
2021/12/31 13:40:50;;;;;;;10.30;7.03;;;;;;;;;;2372439;56;21034;-75
2021/12/31 13:43:25;;;;;;;10.10;7.32;;;;;;;;;;2373734;56;21074;-76
2021/12/31 13:45:52;;;;;;;9.40;6.30;;;;;;;;;;2374088;56;21098;-76
2021/12/31 13:48:19;;;;;;;11.57;6.05;;;;;;;;;;2373761;56;21087;-75
2021/12/31 13:50:46;;;;;;;13.27;8.23;;;;;;;;;;2373587;56;21671;-75
2021/12/31 13:53:21;;;;;;;9.90;5.97;;;;;;;;;;2373594;56;21038;-74
2021/12/31 13:55:48;;;;;;;10.45;6.32;;;;;;;;;;2373696;56;21043;-75
2021/12/31 13:58:16;;;;;;;8.43;6.22;;;;;;;;;;2373510;56;21031;-76
2021/12/31 14:00:43;;;;;;;10.38;6.53;;;;;;;;;;2626923;52;21098;-77
2021/12/31 14:03:11;;;;;;;9.85;6.37;;;;;;;;;;2374011;56;21129;-75
2021/12/31 14:05:45;;;;;;;14.95;7.55;;;;;;;;;;2373995;56;21613;-76
2021/12/31 14:08:29;;;;;;;10.05;7.18;;;;;;;;;;2373916;56;21581;-77
2021/12/31 14:10:56;;;;;;;10.15;6.15;;;;;;;;;;2627344;52;21062;-77
2021/12/31 14:13:23;;;;;;;8.20;6.93;;;;;;;;;;2627058;52;21233;-77
2021/12/31 14:15:50;;;;;;;11.75;7.05;;;;;;;;;;2627352;52;21047;-77
2021/12/31 14:18:17;;;;;;;9.98;7.12;;;;;;;;;;2373840;56;21059;-76
2021/12/31 14:20:45;;;;;;;16.83;10.85;;;;;;;;;;2627022;52;21110;-77
2021/12/31 14:23:12;;;;;;;11.63;7.53;;;;;;;;;;2373992;56;21643;-77
2021/12/31 14:25:45;;;;;;;11.48;6.90;;;;;;;;;;2626975;52;21106;-75
2021/12/31 14:28:13;;;;;;;10.15;7.10;;;;;;;;;;2627442;52;21031;-74
2021/12/31 14:30:40;;;;;;;11.10;6.72;;;;;;;;;;2373895;56;21138;-76
2021/12/31 14:33:07;;;;;;;10.68;8.15;;;;;;;;;;2626972;52;21593;-76
2021/12/31 14:35:37;;;;;;;11.12;7.30;;;;;;;;;;2374134;56;21130;-76
2021/12/31 14:38:09;;;;;;;15.30;8.98;;;;;;;;;;2627270;52;21055;-76
2021/12/31 14:40:38;;;;;;;10.75;7.87;;;;;;;;;;2373791;56;21034;-74
2021/12/31 14:43:05;;;;;;;15.02;7.53;;;;;;;;;;2373670;56;21059;-76
2021/12/31 14:45:32;;;;;;;10.50;8.02;;;;;;;;;;2374181;56;21522;-76
2021/12/31 14:48:01;;;;;;;10.30;6.90;;;;;;;;;;2373847;56;21047;-75
2021/12/31 14:50:28;;;;;;;12.32;6.70;;;;;;;;;;2373261;56;21035;-75